createdAt,value
2017-11-09T00:00:15.743Z,8.20
2017-11-09T00:01:15.728Z,8.00
2017-11-09T00:02:15.724Z,8.10
2017-11-09T00:03:15.720Z,8.10
2017-11-09T00:04:15.717Z,8.80
2017-11-09T00:05:15.713Z,9.50
2017-11-09T00:06:15.710Z,8.30
2017-11-09T00:07:15.706Z,9.20
2017-11-09T00:08:15.703Z,9.10
2017-11-09T00:09:15.699Z,8.80
2017-11-09T00:10:15.695Z,8.90
2017-11-09T00:11:15.692Z,9.70
2017-11-09T00:12:15.688Z,9.10
2017-11-09T00:13:15.684Z,8.60
2017-11-09T00:14:15.683Z,9.60
2017-11-09T00:15:15.677Z,8.70
2017-11-09T00:16:15.674Z,8.90
2017-11-09T00:17:15.670Z,9.40
2017-11-09T00:18:15.667Z,8.80
2017-11-09T00:19:15.663Z,8.60
2017-11-09T00:20:15.659Z,8.70
2017-11-09T00:21:15.656Z,9.60
2017-11-09T00:22:15.652Z,8.90
2017-11-09T00:23:15.648Z,9.50
2017-11-09T00:24:15.645Z,9.90
2017-11-09T00:25:15.642Z,9.50
2017-11-09T00:26:15.638Z,9.70
2017-11-09T00:27:15.635Z,9.20
2017-11-09T00:28:15.630Z,9.50
2017-11-09T00:29:15.629Z,9.10
2017-11-09T00:30:15.626Z,10.00
2017-11-09T00:31:15.669Z,9.80
2017-11-09T00:32:15.617Z,9.10
2017-11-09T00:33:15.613Z,8.50
2017-11-09T00:34:15.609Z,9.40
2017-11-09T00:35:15.611Z,9.30
2017-11-09T00:36:15.602Z,9.00
2017-11-09T00:37:15.599Z,9.20
2017-11-09T00:38:15.596Z,9.20
2017-11-09T00:39:15.591Z,10.10
2017-11-09T00:40:15.588Z,9.10
2017-11-09T00:41:15.583Z,9.70
2017-11-09T00:42:15.580Z,10.00
2017-11-09T00:43:15.578Z,9.60
2017-11-09T00:44:15.575Z,9.30
2017-11-09T00:45:15.570Z,10.30
2017-11-09T00:46:15.566Z,9.60
2017-11-09T00:47:15.562Z,10.50
2017-11-09T00:48:15.565Z,9.90
2017-11-09T00:49:15.556Z,10.40
2017-11-09T00:50:15.558Z,10.30
2017-11-09T00:51:15.548Z,10.00
2017-11-09T00:52:15.545Z,11.20
2017-11-09T00:53:15.543Z,9.30
2017-11-09T00:54:15.538Z,10.30
2017-11-09T00:55:15.533Z,9.90
2017-11-09T00:56:15.532Z,9.80
2017-11-09T00:57:15.527Z,10.00
2017-11-09T00:58:15.524Z,9.50
2017-11-09T00:59:15.520Z,9.40
2017-11-09T01:00:15.516Z,10.20
2017-11-09T01:01:15.513Z,10.10
2017-11-09T01:02:15.509Z,10.00
2017-11-09T01:03:15.503Z,9.60
2017-11-09T01:04:15.507Z,9.50
2017-11-09T01:05:15.505Z,8.80
2017-11-09T01:06:15.493Z,8.50
2017-11-09T01:07:15.488Z,8.40
2017-11-09T01:08:15.485Z,8.00
2017-11-09T01:09:15.482Z,8.30
2017-11-09T01:10:15.479Z,8.70
2017-11-09T01:11:15.474Z,8.50
2017-11-09T01:12:15.470Z,8.60
2017-11-09T01:13:15.467Z,9.10
2017-11-09T01:14:15.463Z,8.80
2017-11-09T01:15:15.457Z,7.80
2017-11-09T01:16:15.461Z,7.50
2017-11-09T01:17:15.452Z,8.70
2017-11-09T01:18:15.448Z,8.10
2017-11-09T01:19:15.443Z,7.60
2017-11-09T01:20:15.440Z,8.60
2017-11-09T01:21:15.436Z,7.70
2017-11-09T01:22:15.432Z,7.70
2017-11-09T01:23:15.432Z,8.30
2017-11-09T01:24:15.424Z,7.50
2017-11-09T01:25:15.420Z,7.80
2017-11-09T01:26:15.418Z,7.60
2017-11-09T01:27:15.413Z,7.30
2017-11-09T01:28:15.407Z,7.30
2017-11-09T01:29:15.408Z,7.90
2017-11-09T01:30:15.402Z,7.00
2017-11-09T01:31:15.397Z,7.40
2017-11-09T01:32:15.393Z,7.60
2017-11-09T01:33:15.391Z,7.60
2017-11-09T01:34:15.388Z,7.70
2017-11-09T01:35:15.431Z,7.50
2017-11-09T01:36:15.378Z,7.40
2017-11-09T01:37:15.378Z,7.70
2017-11-09T01:38:15.371Z,7.30
2017-11-09T01:39:15.368Z,7.80
2017-11-09T01:40:15.364Z,8.00
2017-11-09T01:41:15.361Z,7.40
2017-11-09T01:42:15.357Z,7.20
2017-11-09T01:43:15.352Z,8.40
2017-11-09T01:44:15.349Z,8.00
2017-11-09T01:45:15.347Z,7.20
2017-11-09T01:46:15.342Z,7.00
2017-11-09T01:47:15.339Z,7.90
2017-11-09T01:48:15.336Z,8.10
2017-11-09T01:49:15.333Z,8.10
2017-11-09T01:50:15.329Z,8.40
2017-11-09T01:51:15.322Z,7.60
2017-11-09T01:52:15.321Z,8.30
2017-11-09T01:53:15.316Z,7.50
2017-11-09T01:54:15.313Z,7.20
2017-11-09T01:55:15.308Z,7.60
2017-11-09T01:56:15.304Z,8.20
2017-11-09T01:57:15.301Z,8.20
2017-11-09T01:58:15.299Z,8.00
2017-11-09T01:59:15.293Z,8.50
2017-11-09T02:00:15.290Z,7.60
2017-11-09T02:01:15.286Z,7.40
2017-11-09T02:02:15.283Z,7.50
2017-11-09T02:03:15.279Z,8.40
2017-11-09T02:04:15.276Z,8.30
2017-11-09T02:05:15.273Z,8.50
2017-11-09T02:06:15.268Z,9.30
2017-11-09T02:07:15.266Z,7.80
2017-11-09T02:08:15.261Z,8.80
2017-11-09T02:09:15.260Z,8.90
2017-11-09T02:10:15.254Z,8.40
2017-11-09T02:11:15.249Z,8.20
2017-11-09T02:12:15.247Z,8.50
2017-11-09T02:13:15.242Z,8.70
2017-11-09T02:14:15.239Z,8.40
2017-11-09T02:15:15.235Z,8.10
2017-11-09T02:16:15.231Z,8.60
2017-11-09T02:17:15.229Z,8.10
2017-11-09T02:18:15.225Z,7.40
2017-11-09T02:19:15.221Z,8.30
2017-11-09T02:20:15.218Z,8.10
2017-11-09T02:21:15.214Z,8.10
2017-11-09T02:22:15.209Z,8.30
2017-11-09T02:23:15.206Z,7.70
2017-11-09T02:24:15.203Z,7.80
2017-11-09T02:25:15.255Z,8.20
2017-11-09T02:26:15.195Z,8.30
2017-11-09T02:27:15.193Z,7.90
2017-11-09T02:28:15.188Z,7.80
2017-11-09T02:29:15.196Z,8.00
2017-11-09T02:30:15.183Z,7.70
2017-11-09T02:31:15.180Z,7.20
2017-11-09T02:32:15.222Z,7.70
2017-11-09T02:33:15.169Z,7.60
2017-11-09T02:34:15.174Z,7.90
2017-11-09T02:35:15.161Z,8.20
2017-11-09T02:36:15.158Z,7.30
2017-11-09T02:37:15.153Z,7.50
2017-11-09T02:38:15.152Z,6.90
2017-11-09T02:39:15.146Z,7.30
2017-11-09T02:40:15.143Z,7.30
2017-11-09T02:41:15.138Z,7.70
2017-11-09T02:42:15.140Z,7.60
2017-11-09T02:43:15.130Z,7.80
2017-11-09T02:44:15.132Z,7.80
2017-11-09T02:45:15.123Z,8.80
2017-11-09T02:46:15.174Z,7.50
2017-11-09T02:47:15.115Z,7.00
2017-11-09T02:48:15.111Z,7.70
2017-11-09T02:49:15.109Z,7.80
2017-11-09T02:50:15.105Z,7.80
2017-11-09T02:51:15.099Z,7.00
2017-11-09T02:52:15.095Z,7.60
2017-11-09T02:53:15.092Z,8.90
2017-11-09T02:54:15.089Z,8.50
2017-11-09T02:55:15.134Z,8.50
2017-11-09T02:56:15.080Z,8.30
2017-11-09T02:57:15.099Z,9.40
2017-11-09T02:58:15.073Z,10.20
2017-11-09T02:59:15.067Z,8.60
2017-11-09T03:00:15.064Z,9.10
2017-11-09T03:01:15.060Z,8.70
2017-11-09T03:02:15.069Z,8.80
2017-11-09T03:03:15.055Z,8.60
2017-11-09T03:04:15.057Z,9.70
2017-11-09T03:05:15.044Z,9.20
2017-11-09T03:06:15.040Z,9.40
2017-11-09T03:07:15.037Z,8.90
2017-11-09T03:08:15.035Z,9.00
2017-11-09T03:09:15.029Z,9.80
2017-11-09T03:10:15.024Z,9.10
2017-11-09T03:11:15.019Z,9.40
2017-11-09T03:12:15.017Z,9.70
2017-11-09T03:13:15.011Z,10.20
2017-11-09T03:14:15.008Z,10.10
2017-11-09T03:15:15.001Z,9.60
2017-11-09T03:16:15.006Z,9.40
2017-11-09T03:17:14.995Z,8.90
2017-11-09T03:18:14.990Z,9.10
2017-11-09T03:19:14.985Z,8.50
2017-11-09T03:20:14.981Z,8.70
2017-11-09T03:21:14.978Z,8.80
2017-11-09T03:22:14.973Z,8.30
2017-11-09T03:23:14.970Z,9.20
2017-11-09T03:24:14.965Z,8.90
2017-11-09T03:25:15.010Z,8.40
2017-11-09T03:26:14.958Z,8.30
2017-11-09T03:27:14.952Z,8.50
2017-11-09T03:28:14.958Z,9.30
2017-11-09T03:29:14.947Z,9.70
2017-11-09T03:30:14.939Z,9.40
2017-11-09T03:31:14.935Z,10.00
2017-11-09T03:32:14.929Z,8.70
2017-11-09T03:33:14.924Z,8.30
2017-11-09T03:34:14.920Z,8.00
2017-11-09T03:35:14.915Z,8.40
2017-11-09T03:36:14.911Z,8.20
2017-11-09T03:37:14.909Z,8.50
2017-11-09T03:38:14.903Z,8.60
2017-11-09T03:39:14.898Z,7.30
2017-11-09T03:40:14.895Z,8.10
2017-11-09T03:41:14.889Z,8.10
2017-11-09T03:42:14.885Z,8.40
2017-11-09T03:43:14.880Z,8.60
2017-11-09T03:44:14.876Z,8.80
2017-11-09T03:45:14.873Z,7.90
2017-11-09T03:46:14.870Z,8.80
2017-11-09T03:47:14.865Z,9.50
2017-11-09T03:48:14.862Z,8.50
2017-11-09T03:49:14.857Z,8.00
2017-11-09T03:50:14.853Z,8.70
2017-11-09T03:51:14.847Z,8.50
2017-11-09T03:52:14.845Z,8.60
2017-11-09T03:53:14.841Z,8.60
2017-11-09T03:54:14.835Z,8.70
2017-11-09T03:55:14.829Z,9.40
2017-11-09T03:56:14.826Z,9.70
2017-11-09T03:57:14.834Z,9.20
2017-11-09T03:58:14.819Z,9.60
2017-11-09T03:59:14.813Z,9.20
2017-11-09T04:00:14.812Z,9.20
2017-11-09T04:01:14.805Z,9.30
2017-11-09T04:02:14.800Z,9.20
2017-11-09T04:03:14.795Z,9.00
2017-11-09T04:04:14.792Z,9.50
2017-11-09T04:05:14.788Z,9.20
2017-11-09T04:06:14.784Z,9.80
2017-11-09T04:07:14.779Z,9.50
2017-11-09T04:08:14.775Z,11.40
2017-11-09T04:09:14.770Z,10.30
2017-11-09T04:10:14.767Z,10.00
2017-11-09T04:11:14.762Z,9.50
2017-11-09T04:12:14.758Z,10.20
2017-11-09T04:13:14.753Z,10.10
2017-11-09T04:14:14.750Z,11.40
2017-11-09T04:15:14.747Z,9.80
2017-11-09T04:16:14.747Z,10.60
2017-11-09T04:17:14.737Z,11.00
2017-11-09T04:18:14.735Z,10.40
2017-11-09T04:19:14.728Z,11.10
2017-11-09T04:20:14.725Z,10.70
2017-11-09T04:21:14.721Z,10.30
2017-11-09T04:22:14.718Z,11.40
2017-11-09T04:23:14.713Z,11.70
2017-11-09T04:24:14.708Z,11.60
2017-11-09T04:25:14.704Z,11.90
2017-11-09T04:26:14.702Z,12.00
2017-11-09T04:27:14.696Z,12.00
2017-11-09T04:28:14.693Z,11.50
2017-11-09T04:29:14.688Z,10.20
2017-11-09T04:30:14.685Z,10.60
2017-11-09T04:31:14.680Z,10.90
2017-11-09T04:32:14.675Z,10.60
2017-11-09T04:33:14.672Z,10.30
2017-11-09T04:34:14.669Z,10.70
2017-11-09T04:35:14.664Z,11.10
2017-11-09T04:36:14.661Z,11.50
2017-11-09T04:37:14.657Z,11.20
2017-11-09T04:38:14.653Z,12.10
2017-11-09T04:39:14.649Z,14.00
2017-11-09T04:40:14.644Z,18.20
2017-11-09T04:41:14.640Z,18.20
2017-11-09T04:42:14.637Z,18.10
2017-11-09T04:43:14.640Z,19.60
2017-11-09T04:44:14.629Z,16.90
2017-11-09T04:45:14.625Z,17.70
2017-11-09T04:46:14.621Z,17.90
2017-11-09T04:47:14.617Z,18.30
2017-11-09T04:48:14.613Z,15.40
2017-11-09T04:49:14.608Z,10.80
2017-11-09T04:50:14.605Z,10.40
2017-11-09T04:51:14.600Z,10.90
2017-11-09T04:52:14.598Z,12.10
2017-11-09T04:53:14.594Z,17.50
2017-11-09T04:54:14.589Z,23.30
2017-11-09T04:55:14.585Z,23.80
2017-11-09T04:56:14.581Z,27.60
2017-11-09T04:57:14.577Z,29.30
2017-11-09T04:58:14.574Z,27.60
2017-11-09T04:59:14.618Z,26.50
2017-11-09T05:00:14.566Z,26.80
2017-11-09T05:01:14.563Z,28.20
2017-11-09T05:02:14.569Z,26.80
2017-11-09T05:03:14.554Z,24.80
2017-11-09T05:04:14.550Z,21.50
2017-11-09T05:05:14.549Z,20.30
2017-11-09T05:06:14.545Z,20.70
2017-11-09T05:07:14.538Z,22.00
2017-11-09T05:08:14.585Z,10.50
2017-11-09T05:09:14.532Z,7.80
2017-11-09T05:10:14.527Z,8.80
2017-11-09T05:11:14.521Z,9.40
2017-11-09T05:12:14.519Z,8.20
2017-11-09T05:13:14.514Z,7.30
2017-11-09T05:14:14.510Z,7.50
2017-11-09T05:15:14.505Z,7.60
2017-11-09T05:16:14.503Z,6.60
2017-11-09T05:17:14.497Z,7.30
2017-11-09T05:18:14.494Z,7.70
2017-11-09T05:19:14.488Z,7.80
2017-11-09T05:20:14.484Z,7.80
2017-11-09T05:21:14.479Z,9.90
2017-11-09T05:22:14.479Z,9.90
2017-11-09T05:23:14.472Z,9.30
2017-11-09T05:24:14.469Z,10.00
2017-11-09T05:25:14.463Z,9.50
2017-11-09T05:26:14.460Z,9.40
2017-11-09T05:27:14.462Z,9.20
2017-11-09T05:28:14.451Z,9.50
2017-11-09T05:29:14.447Z,9.40
2017-11-09T05:30:14.443Z,10.20
2017-11-09T05:31:14.438Z,9.10
2017-11-09T05:32:14.435Z,9.40
2017-11-09T05:33:14.431Z,8.90
2017-11-09T05:34:14.436Z,8.80
2017-11-09T05:35:14.722Z,9.80
2017-11-09T05:36:14.417Z,8.50
2017-11-09T05:37:14.413Z,9.50
2017-11-09T05:38:14.409Z,9.40
2017-11-09T05:39:14.406Z,9.60
2017-11-09T05:40:14.400Z,10.30
2017-11-09T05:41:14.399Z,10.10
2017-11-09T05:42:14.398Z,10.40
2017-11-09T05:43:14.389Z,9.50
2017-11-09T05:44:14.384Z,9.90
2017-11-09T05:45:14.380Z,10.90
2017-11-09T05:46:14.377Z,10.90
2017-11-09T05:47:14.374Z,11.10
2017-11-09T05:48:14.369Z,11.80
2017-11-09T05:49:14.415Z,12.90
2017-11-09T05:50:14.363Z,12.90
2017-11-09T05:51:14.356Z,13.40
2017-11-09T05:52:14.352Z,14.10
2017-11-09T05:53:14.354Z,11.70
2017-11-09T05:54:14.365Z,11.60
2017-11-09T05:55:14.341Z,11.30
2017-11-09T05:56:14.339Z,10.60
2017-11-09T05:57:14.333Z,7.80
2017-11-09T05:58:14.329Z,7.20
2017-11-09T05:59:14.329Z,7.30
2017-11-09T06:00:14.375Z,6.90
2017-11-09T06:01:14.316Z,6.20
2017-11-09T06:02:14.313Z,5.20
2017-11-09T06:03:14.309Z,5.10
2017-11-09T06:04:14.307Z,5.10
2017-11-09T06:05:14.304Z,4.40
2017-11-09T06:06:14.298Z,5.10
2017-11-09T06:07:14.292Z,6.60
2017-11-09T06:08:14.288Z,6.60
2017-11-09T06:09:14.294Z,6.50
2017-11-09T06:10:14.289Z,6.10
2017-11-09T06:11:14.275Z,7.10
2017-11-09T06:12:14.271Z,7.50
2017-11-09T06:13:14.268Z,7.20
2017-11-09T06:14:14.265Z,7.30
2017-11-09T06:15:14.259Z,7.50
2017-11-09T06:16:14.256Z,7.00
2017-11-09T06:17:14.252Z,8.10
2017-11-09T06:18:14.247Z,8.10
2017-11-09T06:19:14.243Z,8.20
2017-11-09T06:20:14.238Z,7.30
2017-11-09T06:21:14.235Z,7.60
2017-11-09T06:22:14.230Z,8.30
2017-11-09T06:23:14.226Z,8.90
2017-11-09T06:24:14.221Z,10.30
2017-11-09T06:25:14.216Z,8.40
2017-11-09T06:26:14.213Z,8.70
2017-11-09T06:27:14.209Z,8.80
2017-11-09T06:28:14.204Z,9.40
2017-11-09T06:29:14.202Z,9.70
2017-11-09T06:30:14.247Z,9.90
2017-11-09T06:31:14.192Z,9.90
2017-11-09T06:32:14.190Z,10.20
2017-11-09T06:33:14.184Z,10.40
2017-11-09T06:34:14.179Z,11.50
2017-11-09T06:35:14.175Z,12.50
2017-11-09T06:36:14.171Z,13.10
2017-11-09T06:37:14.167Z,11.40
2017-11-09T06:38:14.164Z,12.30
2017-11-09T06:39:14.158Z,11.20
2017-11-09T06:40:14.156Z,10.30
2017-11-09T06:41:14.149Z,10.20
2017-11-09T06:42:14.145Z,9.70
2017-11-09T06:43:14.142Z,9.10
2017-11-09T06:44:14.137Z,10.00
2017-11-09T06:45:14.132Z,10.30
2017-11-09T06:46:14.128Z,10.70
2017-11-09T06:47:14.126Z,10.40
2017-11-09T06:48:14.120Z,10.40
2017-11-09T06:49:14.115Z,9.60
2017-11-09T06:50:14.112Z,10.40
2017-11-09T06:51:14.158Z,11.10
2017-11-09T06:52:14.105Z,11.00
2017-11-09T06:53:14.099Z,9.90
2017-11-09T06:54:14.094Z,10.60
2017-11-09T06:55:14.092Z,10.80
2017-11-09T06:56:14.090Z,10.30
2017-11-09T06:57:14.083Z,11.20
2017-11-09T06:58:14.083Z,10.50
2017-11-09T06:59:14.075Z,11.40
2017-11-09T07:00:14.070Z,11.40
2017-11-09T07:01:14.068Z,12.30
2017-11-09T07:02:14.064Z,13.30
2017-11-09T07:03:14.058Z,12.30
2017-11-09T07:04:14.055Z,12.80
2017-11-09T07:05:14.052Z,11.80
2017-11-09T07:06:14.047Z,11.10
2017-11-09T07:07:14.043Z,11.00
2017-11-09T07:08:14.041Z,10.00
2017-11-09T07:09:14.036Z,8.50
2017-11-09T07:10:14.033Z,9.40
2017-11-09T07:11:14.031Z,8.60
2017-11-09T07:12:14.023Z,9.70
2017-11-09T07:13:14.021Z,9.40
2017-11-09T07:14:14.016Z,9.20
2017-11-09T07:15:14.010Z,8.50
2017-11-09T07:16:14.009Z,9.20
2017-11-09T07:17:14.003Z,10.30
2017-11-09T07:18:14.002Z,9.70
2017-11-09T07:19:13.996Z,9.10
2017-11-09T07:20:13.990Z,9.90
2017-11-09T07:21:13.987Z,9.70
2017-11-09T07:22:13.983Z,11.30
2017-11-09T07:23:13.979Z,10.10
2017-11-09T07:24:13.976Z,11.40
2017-11-09T07:25:13.971Z,10.80
2017-11-09T07:26:13.970Z,11.20
2017-11-09T07:27:13.970Z,10.30
2017-11-09T07:28:13.961Z,10.90
2017-11-09T07:29:13.957Z,12.10
2017-11-09T07:30:13.953Z,11.20
2017-11-09T07:31:13.999Z,11.50
2017-11-09T07:32:13.944Z,11.70
2017-11-09T07:33:13.941Z,11.00
2017-11-09T07:34:13.938Z,12.10
2017-11-09T07:35:13.933Z,11.30
2017-11-09T07:36:13.929Z,12.40
2017-11-09T07:37:13.925Z,12.00
2017-11-09T07:38:13.921Z,11.10
2017-11-09T07:39:13.917Z,11.40
2017-11-09T07:40:13.913Z,11.20
2017-11-09T07:41:13.910Z,12.60
2017-11-09T07:42:13.908Z,11.80
2017-11-09T07:43:13.902Z,12.80
2017-11-09T07:44:13.898Z,12.60
2017-11-09T07:45:13.894Z,12.40
2017-11-09T07:46:13.895Z,12.70
2017-11-09T07:47:13.896Z,13.60
2017-11-09T07:48:13.883Z,11.20
2017-11-09T07:49:13.879Z,12.70
2017-11-09T07:50:13.876Z,12.30
2017-11-09T07:51:13.869Z,12.50
2017-11-09T07:52:13.866Z,13.90
2017-11-09T07:53:13.871Z,12.80
2017-11-09T07:54:13.860Z,13.50
2017-11-09T07:55:13.856Z,13.50
2017-11-09T07:56:13.850Z,14.50
2017-11-09T07:57:13.848Z,12.90
2017-11-09T07:58:13.858Z,13.00
2017-11-09T07:59:13.839Z,14.20
2017-11-09T08:00:13.836Z,13.50
2017-11-09T08:01:13.832Z,13.60
2017-11-09T08:02:13.829Z,12.90
2017-11-09T08:03:13.823Z,13.10
2017-11-09T08:04:13.818Z,13.80
2017-11-09T08:05:13.833Z,13.50
2017-11-09T08:06:13.812Z,12.90
2017-11-09T08:07:13.839Z,13.30
2017-11-09T08:08:13.810Z,13.70
2017-11-09T08:09:13.800Z,13.90
2017-11-09T08:10:13.796Z,13.80
2017-11-09T08:11:13.791Z,14.10
2017-11-09T08:12:13.786Z,13.80
2017-11-09T08:13:13.784Z,14.20
2017-11-09T08:14:13.783Z,13.40
2017-11-09T08:15:13.774Z,14.60
2017-11-09T08:16:13.770Z,14.20
2017-11-09T08:17:13.765Z,13.90
2017-11-09T08:18:13.774Z,14.30
2017-11-09T08:19:13.758Z,14.90
2017-11-09T08:20:13.809Z,15.00
2017-11-09T08:21:13.757Z,14.10
2017-11-09T08:22:13.746Z,14.30
2017-11-09T08:23:13.741Z,15.00
2017-11-09T08:24:13.738Z,14.20
2017-11-09T08:25:13.734Z,14.00
2017-11-09T08:26:13.732Z,14.60
2017-11-09T08:27:13.727Z,14.50
2017-11-09T08:28:13.722Z,14.90
2017-11-09T08:29:13.718Z,14.10
2017-11-09T08:30:13.714Z,14.20
2017-11-09T08:31:13.710Z,14.50
2017-11-09T08:32:13.706Z,13.70
2017-11-09T08:33:13.703Z,14.30
2017-11-09T08:34:13.701Z,13.20
2017-11-09T08:35:13.700Z,11.80
2017-11-09T08:36:13.692Z,12.20
2017-11-09T08:37:13.688Z,11.80
2017-11-09T08:38:13.686Z,12.30
2017-11-09T08:39:13.681Z,12.50
2017-11-09T08:40:13.677Z,13.70
2017-11-09T08:41:13.673Z,13.60
2017-11-09T08:42:13.670Z,14.80
2017-11-09T08:43:13.665Z,15.30
2017-11-09T08:44:13.663Z,15.30
2017-11-09T08:45:13.658Z,16.40
2017-11-09T08:46:13.655Z,16.10
2017-11-09T08:47:13.652Z,16.70
2017-11-09T08:48:13.649Z,15.40
2017-11-09T08:49:13.644Z,17.20
2017-11-09T08:50:13.640Z,17.60
2017-11-09T08:51:13.638Z,13.10
2017-11-09T08:52:13.633Z,9.50
2017-11-09T08:53:13.630Z,8.70
2017-11-09T08:54:13.625Z,8.90
2017-11-09T08:55:13.623Z,8.40
2017-11-09T08:56:13.619Z,9.30
2017-11-09T08:57:13.615Z,9.40
2017-11-09T08:58:13.612Z,9.40
2017-11-09T08:59:13.608Z,10.60
2017-11-09T09:00:13.604Z,11.10
2017-11-09T09:01:13.601Z,12.70
2017-11-09T09:02:13.598Z,10.80
2017-11-09T09:03:13.593Z,12.20
2017-11-09T09:04:13.599Z,11.60
2017-11-09T09:05:13.586Z,11.90
2017-11-09T09:06:13.583Z,13.70
2017-11-09T09:07:13.580Z,13.90
2017-11-09T09:08:13.576Z,13.10
2017-11-09T09:09:13.574Z,13.30
2017-11-09T09:10:13.620Z,13.30
2017-11-09T09:11:13.566Z,13.70
2017-11-09T09:12:13.564Z,12.80
2017-11-09T09:13:13.560Z,12.70
2017-11-09T09:14:13.557Z,12.80
2017-11-09T09:15:13.553Z,13.20
2017-11-09T09:16:13.551Z,12.40
2017-11-09T09:17:13.545Z,11.90
2017-11-09T09:18:13.544Z,11.50
2017-11-09T09:19:13.540Z,9.90
2017-11-09T09:20:13.537Z,9.60
2017-11-09T09:21:13.532Z,10.20
2017-11-09T09:22:13.530Z,10.50
2017-11-09T09:23:13.526Z,25.40
2017-11-09T09:24:13.525Z,10.30
2017-11-09T09:25:13.521Z,12.90
2017-11-09T09:26:13.517Z,13.70
2017-11-09T09:27:13.515Z,12.90
2017-11-09T09:28:13.510Z,12.60
2017-11-09T09:29:13.508Z,12.50
2017-11-09T09:30:13.504Z,12.80
2017-11-09T09:31:13.501Z,13.90
2017-11-09T09:32:13.497Z,14.80
2017-11-09T09:33:13.494Z,14.10
2017-11-09T09:34:13.542Z,12.30
2017-11-09T09:35:13.489Z,10.30
2017-11-09T09:36:13.485Z,10.30
2017-11-09T09:37:13.486Z,10.70
2017-11-09T09:38:13.479Z,9.60
2017-11-09T09:39:13.525Z,9.80
2017-11-09T09:40:13.473Z,8.90
2017-11-09T09:41:13.469Z,8.50
2017-11-09T09:42:13.467Z,9.60
2017-11-09T09:43:13.462Z,9.70
2017-11-09T09:44:13.460Z,10.10
2017-11-09T09:45:13.457Z,12.80
2017-11-09T09:46:13.454Z,11.10
2017-11-09T09:47:13.450Z,9.80
2017-11-09T09:48:13.447Z,9.00
2017-11-09T09:49:13.443Z,10.70
2017-11-09T09:50:13.441Z,10.70
2017-11-09T09:51:13.439Z,11.40
2017-11-09T09:52:13.434Z,12.80
2017-11-09T09:53:13.432Z,13.90
2017-11-09T09:54:13.429Z,13.30
2017-11-09T09:55:13.426Z,15.60
2017-11-09T09:56:13.422Z,15.40
2017-11-09T09:57:13.419Z,15.70
2017-11-09T09:58:13.417Z,16.20
2017-11-09T09:59:13.413Z,15.10
2017-11-09T10:00:13.409Z,15.20
2017-11-09T10:01:13.407Z,16.10
2017-11-09T10:02:13.405Z,14.40
2017-11-09T10:03:13.401Z,14.70
2017-11-09T10:04:13.448Z,15.20
2017-11-09T10:05:13.411Z,16.50
2017-11-09T10:06:13.394Z,16.40
2017-11-09T10:07:13.389Z,16.00
2017-11-09T10:08:13.392Z,15.40
2017-11-09T10:09:13.384Z,13.50
2017-11-09T10:10:13.380Z,15.80
2017-11-09T10:11:13.376Z,15.90
2017-11-09T10:12:13.374Z,15.80
2017-11-09T10:13:13.371Z,15.10
2017-11-09T10:14:13.370Z,15.70
2017-11-09T10:15:13.366Z,13.60
2017-11-09T10:16:13.363Z,13.90
2017-11-09T10:17:13.377Z,14.30
2017-11-09T10:18:13.357Z,14.40
2017-11-09T10:19:13.353Z,14.70
2017-11-09T10:20:13.355Z,14.30
2017-11-09T10:21:13.348Z,14.50
2017-11-09T10:22:13.346Z,15.80
2017-11-09T10:23:13.340Z,15.50
2017-11-09T10:24:13.338Z,15.10
2017-11-09T10:25:13.334Z,16.30
2017-11-09T10:26:13.332Z,15.70
2017-11-09T10:27:13.337Z,18.70
2017-11-09T10:28:13.326Z,17.10
2017-11-09T10:29:13.324Z,16.70
2017-11-09T10:30:13.320Z,16.70
2017-11-09T10:31:13.316Z,16.50
2017-11-09T10:32:13.313Z,16.70
2017-11-09T10:33:13.312Z,17.10
2017-11-09T10:34:13.309Z,21.70
2017-11-09T10:35:13.305Z,17.60
2017-11-09T10:36:13.304Z,17.30
2017-11-09T10:37:13.299Z,19.90
2017-11-09T10:38:13.296Z,20.20
2017-11-09T10:39:13.293Z,17.00
2017-11-09T10:40:13.291Z,16.60
2017-11-09T10:41:13.338Z,17.90
2017-11-09T10:42:13.284Z,18.30
2017-11-09T10:43:13.280Z,14.60
2017-11-09T10:44:13.278Z,14.10
2017-11-09T10:45:13.275Z,15.90
2017-11-09T10:46:13.272Z,15.10
2017-11-09T10:47:13.272Z,15.40
2017-11-09T10:48:13.266Z,16.20
2017-11-09T10:49:13.263Z,16.20
2017-11-09T10:50:13.261Z,17.00
2017-11-09T10:51:13.257Z,17.20
2017-11-09T10:52:13.253Z,17.90
2017-11-09T10:53:13.252Z,16.80
2017-11-09T10:54:13.250Z,18.00
2017-11-09T10:55:13.246Z,17.20
2017-11-09T10:56:13.243Z,17.60
2017-11-09T10:57:13.240Z,17.30
2017-11-09T10:58:13.237Z,17.30
2017-11-09T10:59:13.233Z,16.50
2017-11-09T11:00:13.232Z,16.70
2017-11-09T11:01:13.229Z,18.50
2017-11-09T11:02:13.226Z,17.60
2017-11-09T11:03:13.232Z,22.50
2017-11-09T11:04:13.221Z,22.50
2017-11-09T11:05:13.217Z,24.20
2017-11-09T11:06:13.215Z,18.10
2017-11-09T11:07:13.210Z,19.30
2017-11-09T11:08:13.224Z,17.40
2017-11-09T11:09:13.206Z,17.10
2017-11-09T11:10:13.205Z,16.10
2017-11-09T11:11:13.200Z,17.50
2017-11-09T11:12:13.197Z,17.20
2017-11-09T11:13:13.194Z,20.30
2017-11-09T11:14:13.193Z,18.20
2017-11-09T11:15:13.188Z,18.50
2017-11-09T11:16:13.187Z,17.50
2017-11-09T11:17:13.196Z,17.70
2017-11-09T11:18:13.181Z,17.40
2017-11-09T11:19:13.229Z,17.60
2017-11-09T11:20:13.176Z,18.30
2017-11-09T11:21:13.173Z,18.50
2017-11-09T11:22:13.170Z,18.30
2017-11-09T11:23:13.167Z,18.20
2017-11-09T11:24:13.164Z,17.90
2017-11-09T11:25:13.163Z,18.60
2017-11-09T11:26:13.163Z,18.10
2017-11-09T11:27:13.156Z,17.70
2017-11-09T11:28:13.153Z,17.80
2017-11-09T11:29:13.151Z,17.20
2017-11-09T11:30:13.150Z,16.90
2017-11-09T11:31:13.147Z,17.70
2017-11-09T11:32:13.143Z,17.00
2017-11-09T11:33:13.142Z,16.30
2017-11-09T11:34:13.138Z,16.70
2017-11-09T11:35:13.140Z,17.30
2017-11-09T11:36:13.133Z,17.50
2017-11-09T11:37:13.133Z,17.80
2017-11-09T11:38:13.127Z,18.40
2017-11-09T11:39:13.125Z,17.40
2017-11-09T11:40:13.122Z,19.10
2017-11-09T11:41:13.119Z,17.30
2017-11-09T11:42:13.118Z,19.00
2017-11-09T11:43:13.115Z,17.80
2017-11-09T11:44:13.113Z,18.00
2017-11-09T11:45:13.109Z,18.50
2017-11-09T11:46:13.107Z,18.70
2017-11-09T11:47:13.104Z,18.50
2017-11-09T11:48:13.103Z,18.00
2017-11-09T11:49:13.099Z,19.50
2017-11-09T11:50:13.099Z,17.60
2017-11-09T11:51:13.092Z,18.90
2017-11-09T11:52:13.092Z,17.90
2017-11-09T11:53:13.089Z,19.10
2017-11-09T11:54:13.088Z,17.90
2017-11-09T11:55:13.085Z,18.60
2017-11-09T11:56:13.081Z,19.40
2017-11-09T11:57:13.079Z,21.90
2017-11-09T11:58:13.077Z,20.70
2017-11-09T11:59:13.074Z,21.60
2017-11-09T12:00:13.071Z,20.60
2017-11-09T12:01:13.070Z,20.70
2017-11-09T12:02:13.067Z,23.00
2017-11-09T12:03:13.064Z,20.90
2017-11-09T12:04:13.061Z,19.90
2017-11-09T12:05:13.061Z,21.80
2017-11-09T12:06:13.057Z,22.00
2017-11-09T12:07:13.054Z,21.10
2017-11-09T12:08:13.053Z,20.50
2017-11-09T12:09:13.050Z,20.10
2017-11-09T12:10:13.049Z,20.30
2017-11-09T12:11:13.046Z,19.00
2017-11-09T12:12:13.045Z,20.90
2017-11-09T12:13:13.042Z,18.30
2017-11-09T12:14:13.037Z,19.60
2017-11-09T12:15:13.034Z,20.90
2017-11-09T12:16:13.037Z,19.20
2017-11-09T12:17:13.032Z,20.80
2017-11-09T12:18:13.029Z,21.80
2017-11-09T12:19:13.026Z,19.50
2017-11-09T12:20:13.022Z,18.20
2017-11-09T12:21:13.022Z,20.00
2017-11-09T12:22:13.018Z,19.20
2017-11-09T12:23:13.016Z,19.00
2017-11-09T12:24:13.014Z,18.90
2017-11-09T12:25:13.064Z,19.60
2017-11-09T12:26:13.011Z,19.50
2017-11-09T12:27:13.008Z,19.80
2017-11-09T12:28:13.006Z,19.80
2017-11-09T12:29:13.003Z,18.70
2017-11-09T12:30:13.000Z,20.10
2017-11-09T12:31:12.997Z,18.60
2017-11-09T12:32:12.994Z,18.30
2017-11-09T12:33:12.992Z,20.10
2017-11-09T12:34:12.997Z,19.60
2017-11-09T12:35:12.988Z,19.30
2017-11-09T12:36:12.986Z,21.10
2017-11-09T12:37:12.983Z,19.40
2017-11-09T12:38:12.982Z,18.50
2017-11-09T12:39:12.984Z,18.40
2017-11-09T12:40:12.976Z,19.10
2017-11-09T12:41:12.974Z,18.80
2017-11-09T12:42:13.021Z,18.70
2017-11-09T12:43:12.968Z,18.80
2017-11-09T12:44:12.966Z,20.20
2017-11-09T12:45:13.011Z,19.00
2017-11-09T12:46:12.961Z,20.10
2017-11-09T12:47:12.956Z,19.60
2017-11-09T12:48:12.955Z,23.50
2017-11-09T12:49:12.958Z,19.80
2017-11-09T12:50:12.950Z,26.00
2017-11-09T12:51:12.945Z,27.60
2017-11-09T12:52:12.944Z,25.10
2017-11-09T12:53:12.942Z,18.00
2017-11-09T12:54:12.938Z,20.30
2017-11-09T12:55:12.934Z,23.70
2017-11-09T12:56:12.932Z,22.90
2017-11-09T12:57:12.931Z,19.50
2017-11-09T12:58:12.927Z,19.70
2017-11-09T12:59:12.923Z,19.50
2017-11-09T13:00:12.920Z,19.30
2017-11-09T13:01:12.920Z,19.80
2017-11-09T13:02:12.917Z,20.60
2017-11-09T13:03:12.912Z,19.50